Time;durP1;ratioP1;P1;durP2;ratioP2;P2;SDS_P1;SDS_P2;PMS_P1;PMS_P2;Temp;Humidity;BMP_temperature;BMP_pressure;BME280_temperature;BME280_humidity;BME280_pressure;Samples;Min_cycle;Max_cycle;Signal;HPM_P1;HPM_P2
2022/02/03 00:05:01;;;;;;;6.17;0.90;;;1.00;99.90;0.70;100965.00;;;;4995186;28;87800;-69
2022/02/03 00:07:41;;;;;;;0.80;0.70;;;1.10;99.90;0.70;100965.00;;;;4995554;27;87043;-68
2022/02/03 00:24:17;;;;;;;2.33;1.47;;;0.90;99.90;0.50;100976.00;;;;5012979;27;87779;-69
2022/02/03 00:26:58;;;;;;;1.70;0.93;;;0.80;99.90;0.40;100973.00;;;;5013699;27;87834;-69
2022/02/03 00:29:53;;;;;;;3.27;1.33;;;1.00;99.90;0.40;100958.00;;;;5010034;27;88510;-69
2022/02/03 00:32:29;;;;;;;1.20;0.67;;;1.20;99.90;0.40;100962.00;;;;4996904;27;87684;-69
2022/02/03 00:35:23;;;;;;;2.23;1.17;;;0.70;99.90;0.40;100970.00;;;;4997504;28;87235;-69
2022/02/03 00:49:08;;;;;;;6.47;2.07;;;0.60;99.90;0.40;100984.00;;;;4997851;27;88142;-68
2022/02/03 00:51:32;;;;;;;3.23;1.63;;;0.70;99.90;0.40;100985.00;;;;4997849;27;87831;-70
2022/02/03 00:53:58;;;;;;;0.97;0.87;;;0.60;99.90;0.40;100993.00;;;;4998139;27;87545;-70
2022/02/03 00:56:36;;;;;;;1.77;1.13;;;1.10;99.90;0.30;100990.00;;;;4998250;27;87905;-70
2022/02/03 00:59:16;;;;;;;4.67;1.80;;;0.70;99.90;0.30;100996.00;;;;4998884;27;88632;-69
2022/02/03 01:01:49;;;;;;;6.30;2.03;;;0.70;99.90;0.30;100989.00;;;;5015635;27;100854;-69
2022/02/03 01:04:16;;;;;;;5.73;1.73;;;1.00;99.90;0.30;100999.00;;;;5015771;27;88070;-70
2022/02/03 01:06:50;;;;;;;6.20;1.17;;;1.00;99.90;0.20;101013.00;;;;5018572;27;88245;-70
2022/02/03 01:09:26;;;;;;;1.23;1.00;;;0.60;99.90;0.20;101010.00;;;;5015204;27;88956;-69
2022/02/03 01:12:39;;;;;;;3.70;1.63;;;0.50;99.90;0.10;101011.00;;;;5015673;27;88796;-69
2022/02/03 01:14:56;;;;;;;1.50;0.80;;;0.50;99.90;0.00;101010.00;;;;5015562;27;87792;-70
2022/02/03 01:17:35;;;;;;;9.40;1.37;;;0.40;99.90;0.00;101016.00;;;;5018023;27;87779;-69
2022/02/03 01:33:52;;;;;;;2.63;1.63;;;0.40;99.90;-0.10;101018.00;;;;5012032;27;87662;-70
2022/02/03 01:44:58;;;;;;;3.87;1.10;;;0.10;99.90;-0.20;101017.00;;;;4997326;28;87785;-69
2022/02/03 01:52:51;;;;;;;1.90;1.17;;;0.10;99.90;-0.20;101015.00;;;;5016851;27;87697;-69
2022/02/03 01:55:26;;;;;;;3.63;1.27;;;0.80;99.90;-0.20;101017.00;;;;5017863;27;87965;-69
2022/02/03 01:58:11;;;;;;;2.93;1.40;;;0.10;99.90;-0.20;101015.00;;;;5016125;27;87848;-70
2022/02/03 02:00:54;;;;;;;3.60;1.80;;;0.10;99.90;-0.20;101022.00;;;;5016580;27;94198;-70
2022/02/03 02:03:44;;;;;;;2.23;1.13;;;0.10;99.90;-0.20;101006.00;;;;5004480;27;95915;-70
2022/02/03 02:06:32;;;;;;;3.17;1.63;;;0.10;99.90;-0.20;101009.00;;;;4985178;28;88798;-70
2022/02/03 02:09:14;;;;;;;1.33;1.17;;;0.60;99.90;-0.20;101004.00;;;;4994824;27;91598;-70
2022/02/03 02:12:15;;;;;;;7.93;1.70;;;0.20;99.90;-0.20;101017.00;;;;4994542;28;87768;-70
2022/02/03 02:36:57;;;;;;;1.77;1.17;;;0.10;99.90;-0.20;101000.00;;;;4996177;27;87181;-70
2022/02/03 02:38:07;;;;;;;4.17;1.00;;;0.60;99.90;-0.30;100993.00;;;;5012814;27;89672;-69
2022/02/03 02:41:03;;;;;;;4.23;1.73;;;0.20;99.90;-0.30;100991.00;;;;4994605;28;87867;-69
2022/02/03 02:43:55;;;;;;;4.07;1.40;;;0.10;99.90;-0.30;100988.00;;;;4995409;27;87696;-69
2022/02/03 02:46:49;;;;;;;4.53;1.87;;;0.10;99.90;-0.30;100985.00;;;;4996386;27;87932;-69
2022/02/03 02:49:45;;;;;;;5.93;1.93;;;0.00;99.90;-0.30;100982.00;;;;5014526;27;87897;-69
2022/02/03 02:52:29;;;;;;;2.10;1.30;;;0.00;99.90;-0.40;100976.00;;;;5014320;27;87166;-69
2022/02/03 02:55:34;;;;;;;9.47;1.43;;;0.40;99.90;-0.40;100976.00;;;;5025440;27;87571;-68
2022/02/03 03:04:10;;;;;;;4.77;1.53;;;0.10;99.90;-0.20;100975.00;;;;5013609;27;88730;-69
2022/02/03 03:32:05;;;;;;;1.10;1.00;;;1.10;99.90;0.10;100972.00;;;;5004145;27;87963;-69
2022/02/03 03:34:55;;;;;;;4.23;1.50;;;0.40;99.90;0.20;100967.00;;;;5009905;27;89465;-69
2022/02/03 03:37:30;;;;;;;1.60;1.33;;;0.40;99.90;0.30;100959.00;;;;4996640;27;87929;-69
2022/02/03 03:39:59;;;;;;;5.70;1.43;;;0.50;99.90;0.40;100956.00;;;;5015646;27;87739;-69
2022/02/03 03:42:35;;;;;;;6.87;1.67;;;1.20;99.90;0.50;100943.00;;;;5004885;27;87820;-69
2022/02/03 03:45:08;;;;;;;3.30;2.00;;;0.80;99.90;0.60;100946.00;;;;5014326;27;88312;-69
2022/02/03 03:47:38;;;;;;;4.10;1.80;;;0.80;99.90;0.60;100934.00;;;;5013950;27;87861;-69
2022/02/03 03:50:11;;;;;;;7.47;2.10;;;0.90;99.90;0.70;100938.00;;;;5014737;27;97995;-69
2022/02/03 03:53:16;;;;;;;5.47;1.53;;;1.00;99.90;0.70;100930.00;;;;5010057;27;87767;-69
2022/02/03 03:55:54;;;;;;;3.13;1.70;;;0.70;99.90;0.70;100935.00;;;;5000164;27;89486;-70
2022/02/03 03:58:42;;;;;;;5.27;2.17;;;1.00;99.90;0.80;100931.00;;;;5014673;27;89748;-70
2022/02/03 04:54:01;;;;;;;3.17;2.13;;;1.40;99.90;1.10;100927.00;;;;4998903;27;88645;-69
2022/02/03 04:57:11;;;;;;;3.67;1.33;;;1.50;99.90;1.20;100913.00;;;;5016869;27;88118;-70
2022/02/03 05:00:39;;;;;;;6.90;4.47;;;1.40;99.90;1.20;100910.00;;;;5018089;27;87982;-70
2022/02/03 05:04:15;;;;;;;27.33;8.97;;;1.50;99.90;1.30;100906.00;;;;5017394;27;87952;-69
2022/02/03 05:07:58;;;;;;;8.83;5.13;;;1.60;99.90;1.30;100914.00;;;;5032809;27;90301;-69
2022/02/03 05:10:54;;;;;;;8.40;2.73;;;1.70;99.90;1.40;100904.00;;;;4995514;28;87723;-69
2022/02/03 05:48:01;;;;;;;2.87;1.40;;;2.20;99.90;1.90;100890.00;;;;4997603;27;87636;-69
2022/02/03 05:50:33;;;;;;;8.13;2.03;;;2.10;99.90;1.90;100887.00;;;;4993238;28;87829;-71
2022/02/03 06:03:47;;;;;;;8.70;1.93;;;2.20;99.90;2.10;100890.00;;;;4991651;27;97400;-71
2022/02/03 06:08:57;;;;;;;5.43;1.83;;;2.30;99.90;2.10;100878.00;;;;5003449;27;98094;-70
2022/02/03 06:14:16;;;;;;;3.40;1.57;;;2.40;99.90;2.20;100875.00;;;;4994622;27;87041;-69
2022/02/03 06:22:23;;;;;;;5.97;1.60;;;2.50;99.90;2.30;100857.00;;;;4996056;27;88978;-69
2022/02/03 06:27:27;;;;;;;5.30;1.77;;;2.50;99.90;2.30;100849.00;;;;5003108;27;88123;-71
2022/02/03 06:29:56;;;;;;;2.77;1.87;;;2.50;99.90;2.30;100844.00;;;;4997523;27;88751;-69
2022/02/03 06:32:23;;;;;;;3.57;1.60;;;2.50;99.90;2.30;100849.00;;;;4998488;27;87927;-68
2022/02/03 06:34:49;;;;;;;7.67;1.60;;;2.60;99.90;2.40;100847.00;;;;4996444;28;87631;-68
2022/02/03 06:37:15;;;;;;;1.50;1.20;;;2.60;99.90;2.40;100844.00;;;;4997259;27;88481;-68
2022/02/03 06:39:41;;;;;;;5.33;2.30;;;2.70;99.90;2.40;100853.00;;;;5014031;27;103940;-71
2022/02/03 06:42:08;;;;;;;8.40;1.87;;;3.40;99.90;2.40;100849.00;;;;5016284;27;94022;-69
2022/02/03 06:44:40;;;;;;;3.37;1.30;;;2.60;99.90;2.40;100846.00;;;;4996265;28;87861;-69
2022/02/03 06:47:18;;;;;;;6.50;1.63;;;2.60;99.90;2.40;100844.00;;;;4993739;28;89164;-71
2022/02/03 06:50:01;;;;;;;4.40;2.23;;;2.60;99.90;2.40;100848.00;;;;4995491;27;89699;-71
2022/02/03 06:58:00;;;;;;;6.60;1.80;;;2.60;99.90;2.30;100835.00;;;;5011604;27;87864;-71
2022/02/03 07:00:31;;;;;;;3.90;1.67;;;2.60;99.90;2.30;100844.00;;;;5013832;27;89023;-70
2022/02/03 07:02:59;;;;;;;1.50;1.30;;;2.60;99.90;2.30;100833.00;;;;5014100;27;87780;-71
2022/02/03 07:05:25;;;;;;;6.07;1.50;;;2.60;99.90;2.30;100837.00;;;;5031480;27;87053;-70
2022/02/03 07:07:52;;;;;;;4.33;1.80;;;2.60;99.90;2.40;100830.00;;;;5004145;27;87938;-70
2022/02/03 07:10:18;;;;;;;9.20;2.07;;;2.70;99.90;2.40;100825.00;;;;4995763;28;88563;-71
2022/02/03 07:12:44;;;;;;;3.73;1.53;;;2.60;99.90;2.40;100820.00;;;;4999933;27;88707;-70
2022/02/03 07:15:11;;;;;;;4.77;1.87;;;2.60;99.90;2.50;100807.00;;;;5015637;27;87659;-69
2022/02/03 07:17:38;;;;;;;4.10;1.57;;;2.60;99.90;2.50;100806.00;;;;5011939;27;88123;-72
2022/02/03 07:20:07;;;;;;;4.03;1.97;;;2.70;99.90;2.60;100811.00;;;;4995427;27;88020;-70
2022/02/03 07:22:34;;;;;;;5.90;1.63;;;2.80;99.90;2.70;100807.00;;;;4998443;27;87678;-69
2022/02/03 07:25:01;;;;;;;0.77;0.70;;;2.80;99.90;2.70;100816.00;;;;5016117;27;87821;-69
2022/02/03 07:27:27;;;;;;;4.03;2.03;;;2.90;99.90;2.80;100814.00;;;;5015062;27;89159;-69
2022/02/03 07:29:54;;;;;;;5.57;1.43;;;3.00;99.90;2.90;100812.00;;;;5015366;27;87118;-68
2022/02/03 07:32:22;;;;;;;1.90;1.23;;;3.00;99.90;3.00;100813.00;;;;5016257;27;87750;-70
2022/02/03 07:34:51;;;;;;;5.60;2.00;;;3.20;99.90;3.10;100807.00;;;;5015157;27;87706;-70
2022/02/03 07:37:18;;;;;;;2.30;1.00;;;3.20;99.90;3.20;100808.00;;;;4997874;27;89621;-70
2022/02/03 07:39:44;;;;;;;7.40;1.63;;;3.40;99.90;3.40;100811.00;;;;4994832;27;89661;-71
2022/02/03 07:42:11;;;;;;;6.33;1.37;;;3.50;99.90;3.50;100802.00;;;;5011801;27;87570;-69
2022/02/03 07:44:37;;;;;;;5.20;1.23;;;3.60;99.90;3.60;100800.00;;;;5014877;27;87564;-69
2022/02/03 07:47:03;;;;;;;2.90;1.20;;;3.70;99.90;3.70;100792.00;;;;5015708;27;88063;-71
2022/02/03 07:49:30;;;;;;;2.03;1.23;;;4.00;99.90;3.80;100794.00;;;;5013548;27;87610;-70
2022/02/03 07:51:56;;;;;;;4.43;1.20;;;3.90;99.90;3.90;100797.00;;;;5015409;27;88100;-69
2022/02/03 07:54:21;;;;;;;4.73;1.73;;;4.10;99.90;4.00;100786.00;;;;5016214;27;87117;-71
2022/02/03 07:56:47;;;;;;;2.30;1.07;;;4.10;99.90;4.10;100784.00;;;;5014507;27;117314;-70
2022/02/03 07:59:13;;;;;;;2.07;1.37;;;4.20;99.90;4.20;100789.00;;;;4997786;27;117548;-70
2022/02/03 08:01:39;;;;;;;8.00;1.37;;;4.30;99.90;4.30;100786.00;;;;4994560;28;88804;-70
2022/02/03 08:04:07;;;;;;;6.43;1.50;;;4.40;99.90;4.30;100785.00;;;;5002393;27;87714;-69
2022/02/03 08:06:37;;;;;;;1.20;1.10;;;4.50;99.90;4.30;100782.00;;;;5009629;27;90327;-69
2022/02/03 08:09:08;;;;;;;3.23;1.50;;;4.50;99.90;4.40;100775.00;;;;4995661;27;88166;-68
2022/02/03 08:11:39;;;;;;;3.87;1.60;;;4.60;99.90;4.40;100778.00;;;;4995520;28;87763;-70
2022/02/03 08:14:13;;;;;;;7.23;1.63;;;4.60;99.90;4.40;100754.00;;;;4995282;27;87798;-70
2022/02/03 08:16:44;;;;;;;5.83;1.70;;;4.60;99.90;4.50;100777.00;;;;4994683;28;88382;-70
2022/02/03 08:19:17;;;;;;;6.73;1.90;;;4.70;99.90;4.50;100775.00;;;;5009339;27;87632;-69
2022/02/03 08:21:47;;;;;;;4.77;1.70;;;4.70;99.90;4.60;100768.00;;;;5014546;27;87607;-69
2022/02/03 08:24:21;;;;;;;5.20;1.90;;;4.70;99.90;4.60;100774.00;;;;5015424;27;88101;-70
2022/02/03 08:27:01;;;;;;;5.83;1.77;;;4.80;99.90;4.70;100775.00;;;;5014546;27;89149;-69
2022/02/03 08:32:02;;;;;;;4.70;1.40;;;4.80;99.90;4.80;100766.00;;;;5007462;27;97939;-71
2022/02/03 08:34:42;;;;;;;4.50;1.93;;;4.90;99.90;4.80;100754.00;;;;4992785;28;87907;-70
2022/02/03 08:37:08;;;;;;;5.53;1.73;;;4.90;99.90;4.90;100762.00;;;;4999965;27;89064;-70
2022/02/03 08:39:39;;;;;;;4.47;2.70;;;5.00;99.90;4.90;100758.00;;;;5013253;27;87782;-70
2022/02/03 08:42:05;;;;;;;6.13;2.17;;;5.10;99.90;5.00;100754.00;;;;5014707;27;87785;-70
2022/02/03 08:44:31;;;;;;;4.97;2.00;;;5.10;99.90;5.10;100753.00;;;;5014704;27;87028;-71
2022/02/03 08:46:57;;;;;;;3.00;1.47;;;5.20;99.90;5.10;100753.00;;;;5013249;27;118132;-70
2022/02/03 08:49:23;;;;;;;8.57;2.10;;;5.20;99.90;5.20;100743.00;;;;5015920;27;118677;-70
2022/02/03 08:51:50;;;;;;;2.17;1.17;;;5.30;99.90;5.40;100747.00;;;;5017823;27;88752;-71
2022/02/03 08:54:16;;;;;;;2.07;1.00;;;5.50;99.90;5.50;100751.00;;;;5005008;27;87965;-71
2022/02/03 08:56:50;;;;;;;2.70;1.40;;;5.60;99.90;5.60;100734.00;;;;4997621;28;89151;-70
2022/02/03 08:59:42;;;;;;;2.03;1.17;;;5.60;99.90;5.80;100751.00;;;;4997905;27;89313;-70
2022/02/03 09:37:19;;;;;;;6.60;1.73;;;7.50;99.90;7.70;100711.00;;;;5000033;27;97228;-70
2022/02/03 09:40:10;;;;;;;2.93;2.00;;;7.70;99.90;7.80;100718.00;;;;4996917;28;88027;-70
2022/02/03 09:56:34;;;;;;;4.30;1.67;;;7.80;99.90;7.60;100719.00;;;;4994510;28;87733;-71
2022/02/03 09:59:15;;;;;;;3.73;1.13;;;7.70;99.90;7.60;100722.00;;;;4996647;28;87695;-69
2022/02/03 10:01:46;;;;;;;7.30;2.00;;;7.70;99.90;7.70;100723.00;;;;4996460;28;88147;-71
2022/02/03 10:04:19;;;;;;;3.23;1.57;;;7.70;99.90;7.80;100720.00;;;;4997560;28;87871;-70
2022/02/03 10:06:57;;;;;;;1.00;0.90;;;7.80;99.90;7.90;100718.00;;;;4994977;27;87614;-71
2022/02/03 10:09:41;;;;;;;6.07;1.37;;;7.90;99.90;8.00;100720.00;;;;4997410;27;88055;-70
2022/02/03 10:12:09;;;;;;;4.10;1.23;;;8.00;99.90;8.10;100721.00;;;;4994293;28;88959;-69
2022/02/03 10:14:42;;;;;;;2.40;1.37;;;8.10;99.90;8.10;100711.00;;;;4977209;28;101769;-71
2022/02/03 10:17:08;;;;;;;2.63;1.20;;;8.20;99.90;8.20;100697.00;;;;4995084;28;87815;-71
2022/02/03 10:19:38;;;;;;;2.43;1.53;;;8.20;99.90;8.20;100709.00;;;;4997453;27;87753;-68
2022/02/03 10:22:23;;;;;;;3.10;1.73;;;8.30;99.90;8.20;100710.00;;;;4996041;27;88098;-68
2022/02/03 10:24:51;;;;;;;7.00;1.40;;;8.30;99.90;8.20;100699.00;;;;4995549;27;87737;-69
2022/02/03 10:27:30;;;;;;;2.47;1.77;;;8.30;99.90;8.30;100698.00;;;;5011227;27;87567;-71
2022/02/03 10:30:12;;;;;;;3.80;1.70;;;8.30;99.90;8.30;100682.00;;;;4995217;27;87411;-69
2022/02/03 10:32:46;;;;;;;4.20;1.67;;;8.40;99.90;8.30;100686.00;;;;4995751;28;87987;-70
2022/02/03 10:35:19;;;;;;;3.17;1.13;;;8.40;99.90;8.30;100685.00;;;;4997084;27;88160;-70
2022/02/03 10:37:50;;;;;;;2.20;1.70;;;8.40;99.90;8.30;100674.00;;;;4993829;27;88702;-70
2022/02/03 10:43:29;;;;;;;4.90;1.50;;;8.40;99.90;8.40;100676.00;;;;4994443;27;87762;-70
2022/02/03 10:46:50;;;;;;;1.87;1.03;;;8.40;99.90;8.30;100672.00;;;;4995734;27;88432;-70
2022/02/03 10:54:06;;;;;;;8.60;1.77;;;8.30;99.90;8.10;100660.00;;;;5000528;27;107562;-69
2022/02/03 11:02:47;;;;;;;5.00;1.80;;;8.00;99.90;7.80;100658.00;;;;5014096;27;87757;-69
2022/02/03 11:05:27;;;;;;;2.37;1.53;;;7.90;99.90;7.70;100647.00;;;;4990444;28;89220;-71
2022/02/03 11:08:08;;;;;;;4.57;1.93;;;7.80;99.90;7.50;100658.00;;;;4993055;27;91683;-71
2022/02/03 11:10:43;;;;;;;3.97;1.73;;;7.70;99.90;7.40;100655.00;;;;4996611;27;87858;-70
2022/02/03 11:13:10;;;;;;;2.30;1.63;;;7.60;99.90;7.20;100652.00;;;;4992878;27;87785;-70
2022/02/03 11:15:36;;;;;;;2.83;1.90;;;7.40;99.90;7.10;100646.00;;;;4995648;28;88565;-72
2022/02/03 11:18:07;;;;;;;5.23;1.70;;;7.30;99.90;7.00;100657.00;;;;4994360;27;117701;-70
2022/02/03 11:20:39;;;;;;;1.40;1.30;;;7.20;99.90;6.90;100655.00;;;;4996045;28;87590;-70
2022/02/03 11:23:19;;;;;;;3.70;1.70;;;7.00;99.90;6.70;100644.00;;;;5001103;27;87100;-69
2022/02/03 11:55:28;;;;;;;5.10;2.43;;;6.50;99.90;6.30;100617.00;;;;5014433;27;87934;-72
2022/02/03 12:01:01;;;;;;;3.67;2.53;;;6.40;99.90;6.30;100600.00;;;;5014536;27;88813;-72
2022/02/03 12:21:01;;;;;;;3.57;2.77;;;7.40;99.90;6.40;100572.00;;;;5013540;27;88168;-72
2022/02/03 12:26:19;;;;;;;8.23;3.47;;;6.50;99.90;6.40;100559.00;;;;5014853;27;88691;-71
2022/02/03 12:28:58;;;;;;;6.87;2.93;;;6.50;99.90;6.50;100566.00;;;;5016322;27;88278;-71
2022/02/03 12:37:06;;;;;;;4.60;2.67;;;6.70;99.90;6.70;100550.00;;;;5015803;27;87821;-74
2022/02/03 12:39:47;;;;;;;4.77;3.13;;;6.70;99.90;6.70;100545.00;;;;5018436;27;88180;-71
2022/02/03 12:42:32;;;;;;;3.90;2.70;;;6.80;99.90;6.70;100540.00;;;;5017932;27;88162;-74
2022/02/03 12:45:26;;;;;;;6.47;3.13;;;6.80;99.90;6.70;100539.00;;;;5015947;27;89212;-72
2022/02/03 12:47:59;;;;;;;10.53;2.73;;;6.80;99.90;6.80;100523.00;;;;5002319;27;87746;-75
2022/02/03 12:50:44;;;;;;;6.93;3.37;;;6.90;99.90;6.80;100531.00;;;;4997586;27;87970;-74
2022/02/03 12:53:10;;;;;;;6.17;3.07;;;6.90;99.90;6.90;100524.00;;;;4995528;27;89127;-74
2022/02/03 12:55:40;;;;;;;5.03;3.20;;;7.00;99.90;6.90;100532.00;;;;4997578;28;92121;-73
2022/02/03 12:58:16;;;;;;;6.93;3.50;;;7.00;99.90;6.90;100515.00;;;;4998198;27;87499;-74
2022/02/03 13:00:54;;;;;;;4.30;3.03;;;7.00;99.90;6.90;100521.00;;;;4996313;27;87831;-74
2022/02/03 13:03:37;;;;;;;8.83;3.63;;;7.00;99.90;6.90;100514.00;;;;5007345;27;88197;-77
2022/02/03 13:06:09;;;;;;;4.53;3.47;;;7.00;99.90;6.90;100514.00;;;;5016616;27;89284;-78
2022/02/03 13:08:46;;;;;;;3.67;2.87;;;7.00;99.90;6.90;100519.00;;;;5007187;27;87915;-80
2022/02/03 13:11:22;;;;;;;10.63;3.97;;;7.00;99.90;6.90;100515.00;;;;4999239;27;87236;-76
2022/02/03 13:16:27;;;;;;;10.10;3.77;;;7.10;99.90;6.90;100508.00;;;;5010270;27;88708;-76
2022/02/03 13:19:20;;;;;;;6.07;4.10;;;7.00;99.90;6.90;100514.00;;;;4999590;27;88792;-77
2022/02/03 13:27:14;;;;;;;8.10;3.40;;;7.00;99.90;6.90;100496.00;;;;4995529;27;88260;-74
2022/02/03 13:30:16;;;;;;;6.60;3.50;;;7.00;99.90;6.90;100493.00;;;;4997079;27;87885;-75
2022/02/03 13:32:41;;;;;;;7.00;3.53;;;7.00;99.90;6.90;100488.00;;;;4994112;27;87832;-75
2022/02/03 13:35:30;;;;;;;4.47;3.33;;;7.10;99.90;6.90;100496.00;;;;5002551;27;88565;-75
2022/02/03 13:38:04;;;;;;;5.97;4.07;;;7.10;99.90;7.00;100496.00;;;;4997420;27;90033;-72
2022/02/03 13:40:30;;;;;;;7.43;3.27;;;7.10;99.90;7.00;100498.00;;;;5003680;27;87993;-74
2022/02/03 13:42:59;;;;;;;5.77;3.70;;;7.10;99.90;7.00;100488.00;;;;4992931;27;108819;-74
2022/02/03 13:45:25;;;;;;;4.83;3.03;;;7.10;99.90;7.00;100483.00;;;;4998332;27;89540;-76
2022/02/03 13:47:51;;;;;;;7.10;4.10;;;7.10;99.90;7.00;100479.00;;;;4997945;27;117701;-74
2022/02/03 13:50:23;;;;;;;6.07;3.63;;;7.10;99.90;7.10;100479.00;;;;4993169;27;88732;-76
2022/02/03 14:15:07;;;;;;;5.37;4.17;;;7.30;99.90;7.10;100452.00;;;;4994746;27;88263;-76
2022/02/03 14:18:09;;;;;;;9.57;4.03;;;7.20;99.90;7.20;100448.00;;;;4999138;27;88620;-77
2022/02/03 14:20:39;;;;;;;7.57;4.40;;;7.30;99.90;7.20;100440.00;;;;4990675;27;88481;-77
2022/02/03 14:28:15;;;;;;;9.67;5.23;;;7.30;99.90;7.20;100438.00;;;;4996519;27;87932;-78
2022/02/03 14:30:45;;;;;;;9.33;5.60;;;7.30;99.90;7.20;100433.00;;;;4997929;27;88910;-78
2022/02/03 14:33:14;;;;;;;8.47;4.63;;;7.30;99.90;7.20;100438.00;;;;5005176;27;87945;-77
2022/02/03 14:35:40;;;;;;;9.47;5.23;;;7.30;99.90;7.20;100430.00;;;;5001915;27;87871;-77
2022/02/03 14:38:46;;;;;;;5.20;4.37;;;7.30;99.90;7.20;100424.00;;;;4991889;27;88831;-77
2022/02/03 14:43:24;;;;;;;7.90;4.03;;;7.30;99.90;7.20;100417.00;;;;4994511;27;98082;-77
2022/02/03 14:45:50;;;;;;;7.03;4.37;;;7.30;99.90;7.20;100410.00;;;;5001812;27;87648;-77
2022/02/03 14:48:16;;;;;;;9.10;4.40;;;7.30;99.90;7.20;100416.00;;;;4990314;27;89015;-77
2022/02/03 14:50:43;;;;;;;8.73;4.50;;;7.20;99.90;7.20;100409.00;;;;4993814;27;87953;-77
2022/02/03 14:53:19;;;;;;;6.80;5.17;;;7.30;99.90;7.20;100400.00;;;;5002339;27;87790;-77
2022/02/03 14:58:30;;;;;;;6.80;4.27;;;7.30;99.90;7.20;100396.00;;;;4986545;27;88275;-76
2022/02/03 15:00:57;;;;;;;9.00;4.67;;;8.20;99.90;7.10;100397.00;;;;4989572;27;87942;-77
2022/02/03 15:03:25;;;;;;;7.67;4.63;;;7.30;99.90;7.10;100396.00;;;;4990198;27;88895;-77
2022/02/03 15:05:52;;;;;;;9.07;5.17;;;7.20;99.90;7.10;100393.00;;;;4988706;27;87909;-78
2022/02/03 15:11:06;;;;;;;10.23;5.23;;;7.20;99.90;7.10;100396.00;;;;4999428;27;87797;-78
2022/02/03 15:13:44;;;;;;;6.57;4.80;;;7.20;99.90;7.10;100392.00;;;;5000691;27;88504;-80
2022/02/03 15:16:12;;;;;;;6.20;5.13;;;7.20;99.90;7.10;100381.00;;;;4985197;27;87870;-74
2022/02/03 15:18:38;;;;;;;9.67;4.63;;;7.20;99.90;7.10;100388.00;;;;4993064;27;89145;-77
2022/02/03 15:21:05;;;;;;;7.93;4.73;;;7.20;99.90;7.00;100381.00;;;;5002087;27;91232;-77
2022/02/03 15:23:32;;;;;;;8.47;3.57;;;7.10;99.90;7.00;100382.00;;;;5006252;27;87919;-74
2022/02/03 15:25:59;;;;;;;7.30;4.17;;;7.10;99.90;7.00;100372.00;;;;4998351;27;88225;-74
2022/02/03 15:28:25;;;;;;;6.60;4.20;;;7.10;99.90;7.00;100367.00;;;;4989045;27;89120;-76
2022/02/03 15:30:53;;;;;;;5.53;3.70;;;7.60;99.90;7.00;100372.00;;;;5001852;27;88787;-74
2022/02/03 15:33:24;;;;;;;5.80;4.30;;;7.10;99.90;7.00;100365.00;;;;4999044;27;88024;-75
2022/02/03 15:35:53;;;;;;;7.47;4.30;;;7.00;99.90;7.00;100368.00;;;;5001291;27;87779;-75
2022/02/03 15:38:21;;;;;;;16.10;5.17;;;7.10;99.90;7.00;100370.00;;;;5000795;27;87842;-75
2022/02/03 15:40:49;;;;;;;6.40;3.73;;;7.00;99.90;7.00;100364.00;;;;4990606;27;88791;-76
2022/02/03 15:45:49;;;;;;;3.87;3.07;;;7.10;99.90;6.90;100355.00;;;;5004836;27;87213;-77
2022/02/03 15:48:27;;;;;;;6.57;4.73;;;7.00;99.90;7.00;100351.00;;;;4992794;27;88511;-79
2022/02/03 15:51:11;;;;;;;5.90;4.30;;;7.30;99.90;6.90;100348.00;;;;4998355;27;88308;-79
2022/02/03 16:02:08;;;;;;;6.07;4.00;;;7.00;99.90;6.90;100338.00;;;;4989831;27;87846;-78
2022/02/03 16:17:57;;;;;;;8.50;4.33;;;7.00;99.90;6.90;100334.00;;;;4993573;27;88035;-74
2022/02/03 16:20:32;;;;;;;6.00;4.10;;;7.00;99.90;6.90;100325.00;;;;4993824;27;90048;-75
2022/02/03 16:43:08;;;;;;;9.40;5.27;;;7.00;99.90;6.90;100333.00;;;;5002998;27;88011;-73
2022/02/03 16:50:55;;;;;;;7.37;4.50;;;7.00;99.90;6.90;100330.00;;;;4992064;27;87646;-73
2022/02/03 16:53:19;;;;;;;5.50;4.30;;;7.00;99.90;6.90;100326.00;;;;4992776;27;88683;-75
2022/02/03 16:55:46;;;;;;;10.67;5.87;;;7.00;99.90;6.90;100326.00;;;;4996714;27;117293;-75
2022/02/03 16:58:13;;;;;;;8.17;6.33;;;7.00;99.90;6.90;100330.00;;;;5005705;27;87907;-75
2022/02/03 17:00:40;;;;;;;8.27;5.17;;;7.00;99.90;6.90;100322.00;;;;4992231;27;87842;-76
2022/02/03 17:03:06;;;;;;;7.40;4.93;;;7.00;99.90;6.90;100317.00;;;;4991571;27;88066;-75
2022/02/03 17:05:37;;;;;;;8.83;6.07;;;7.00;99.90;6.90;100317.00;;;;4988568;27;90007;-74
2022/02/03 17:08:05;;;;;;;6.70;4.97;;;7.00;99.90;6.90;100316.00;;;;5002980;27;87674;-74
2022/02/03 17:10:31;;;;;;;298.37;193.37;;;7.00;99.90;6.90;100312.00;;;;4985162;27;88041;-76
2022/02/03 17:12:57;;;;;;;45.70;27.53;;;7.00;99.90;6.90;100316.00;;;;4994924;27;89508;-76
2022/02/03 17:15:23;;;;;;;227.07;96.57;;;7.00;99.90;6.90;100317.00;;;;4990517;27;118571;-75
2022/02/03 17:17:52;;;;;;;34.33;14.17;;;7.00;99.90;6.90;100315.00;;;;4997391;27;87977;-74
2022/02/03 17:20:20;;;;;;;12.23;7.83;;;7.00;99.90;6.80;100306.00;;;;4996410;27;87692;-74
2022/02/03 17:22:49;;;;;;;10.77;7.17;;;7.00;99.90;6.80;100318.00;;;;4993109;27;89547;-74
2022/02/03 17:25:26;;;;;;;6.60;4.73;;;6.90;99.90;6.80;100310.00;;;;4997512;27;88067;-76
2022/02/03 17:28:02;;;;;;;7.30;4.80;;;7.00;99.90;6.80;100314.00;;;;4992158;27;88115;-73
2022/02/03 17:30:35;;;;;;;6.07;4.20;;;6.90;99.90;6.80;100303.00;;;;4992422;27;86879;-73
2022/02/03 17:52:51;;;;;;;5.00;3.67;;;6.90;99.90;6.70;100293.00;;;;4989445;27;88520;-78
2022/02/03 18:09:01;;;;;;;10.37;4.67;;;6.80;99.90;6.70;100301.00;;;;4989033;27;88705;-78
2022/02/03 18:29:22;;;;;;;8.10;4.57;;;6.70;99.90;6.60;100299.00;;;;4999193;27;88571;-80
2022/02/03 18:50:03;;;;;;;8.40;5.10;;;6.60;99.90;6.40;100276.00;;;;4950508;28;89394;-76
2022/02/03 19:00:32;;;;;;;7.90;5.90;;;6.50;99.90;6.40;100267.00;;;;5011805;27;107219;-76
2022/02/03 19:21:02;;;;;;;14.00;8.63;;;6.50;99.90;6.30;100239.00;;;;4992612;28;87878;-77
2022/02/03 19:28:13;;;;;;;28.67;13.67;;;6.50;99.90;6.30;100232.00;;;;4949291;28;88959;-76
2022/02/03 20:06:00;;;;;;;11.73;7.87;;;7.00;99.90;6.20;100189.00;;;;4989745;28;88006;-74
2022/02/03 20:08:42;;;;;;;14.03;8.23;;;6.40;99.90;6.20;100194.00;;;;4992818;27;87834;-74
2022/02/03 20:11:09;;;;;;;10.70;7.07;;;6.40;99.90;6.20;100196.00;;;;4995388;27;88039;-74
2022/02/03 20:13:35;;;;;;;14.30;7.53;;;6.40;99.90;6.20;100194.00;;;;5009616;27;87068;-74
2022/02/03 20:16:00;;;;;;;9.43;6.57;;;6.40;99.90;6.20;100197.00;;;;4993873;27;117947;-73
2022/02/03 20:18:26;;;;;;;11.30;7.57;;;6.40;99.90;6.20;100185.00;;;;5000863;27;117594;-72
2022/02/03 20:20:52;;;;;;;15.40;8.00;;;6.40;99.90;6.20;100198.00;;;;4994986;27;110185;-73
2022/02/03 20:23:20;;;;;;;13.70;7.77;;;6.40;99.90;6.20;100194.00;;;;4992570;27;87788;-73
2022/02/03 20:26:04;;;;;;;10.23;6.73;;;6.40;99.90;6.20;100196.00;;;;4994524;27;88976;-74
2022/02/03 20:28:30;;;;;;;12.27;7.67;;;6.30;99.90;6.20;100169.00;;;;4992311;27;97781;-73
2022/02/03 20:30:56;;;;;;;12.77;7.00;;;6.40;99.90;6.30;100180.00;;;;4995429;27;110063;-74
2022/02/03 20:33:22;;;;;;;10.73;7.20;;;6.40;99.90;6.30;100177.00;;;;4994180;27;92742;-72
2022/02/03 20:35:48;;;;;;;8.93;6.07;;;6.40;99.90;6.30;100182.00;;;;4993656;28;117000;-72
2022/02/03 20:38:15;;;;;;;9.47;6.50;;;6.40;99.90;6.30;100176.00;;;;5009388;27;89694;-72
2022/02/03 20:40:45;;;;;;;14.90;7.67;;;6.40;99.90;6.30;100172.00;;;;4994665;27;87863;-71
2022/02/03 20:43:12;;;;;;;10.43;6.23;;;6.40;99.90;6.30;100170.00;;;;4994030;27;87820;-72
2022/02/03 20:45:41;;;;;;;9.53;6.97;;;6.40;99.90;6.30;100171.00;;;;4997251;28;89046;-71
2022/02/03 20:48:07;;;;;;;9.83;6.43;;;6.40;99.90;6.30;100171.00;;;;5003461;27;89043;-72
2022/02/03 20:50:36;;;;;;;11.03;6.50;;;6.40;99.90;6.30;100166.00;;;;5017733;27;97934;-72
2022/02/03 20:53:05;;;;;;;11.77;6.90;;;6.40;99.90;6.30;100164.00;;;;5017851;27;87920;-73
2022/02/03 20:55:31;;;;;;;9.83;6.50;;;6.40;99.90;6.30;100165.00;;;;5018343;27;88513;-72
2022/02/03 20:57:57;;;;;;;12.13;6.53;;;6.40;99.90;6.30;100155.00;;;;5016394;27;87880;-73
2022/02/03 21:00:27;;;;;;;9.37;6.47;;;6.50;99.90;6.30;100161.00;;;;4999158;27;88286;-72
2022/02/03 21:05:21;;;;;;;12.07;6.23;;;6.40;99.90;6.30;100152.00;;;;5015026;27;87776;-72
2022/02/03 21:07:50;;;;;;;7.77;6.10;;;6.40;99.90;6.30;100157.00;;;;5017383;27;108370;-71
2022/02/03 21:10:22;;;;;;;11.70;6.50;;;6.40;99.90;6.30;100154.00;;;;5017554;27;88646;-73